createdAt,value
2018-10-16T00:01:25.971Z,21.10
2018-10-16T00:03:54.675Z,27.13
2018-10-16T00:06:23.530Z,21.20
2018-10-16T00:08:52.234Z,19.87
2018-10-16T00:11:20.877Z,17.43
2018-10-16T00:13:49.540Z,22.00
2018-10-16T00:16:18.170Z,20.43
2018-10-16T00:18:46.846Z,17.23
2018-10-16T00:21:15.564Z,20.43
2018-10-16T00:23:44.254Z,21.40
2018-10-16T00:26:12.964Z,18.23
2018-10-16T00:28:41.615Z,17.57
2018-10-16T00:31:10.281Z,16.23
2018-10-16T00:33:38.959Z,19.30
2018-10-16T00:36:07.625Z,19.50
2018-10-16T00:38:36.202Z,19.33
2018-10-16T00:41:04.865Z,23.83
2018-10-16T00:43:33.498Z,21.97
2018-10-16T00:46:02.186Z,25.20
2018-10-16T00:48:30.801Z,23.70
2018-10-16T00:50:59.448Z,30.97
2018-10-16T00:53:28.057Z,24.37
2018-10-16T00:55:56.877Z,22.87
2018-10-16T00:58:25.529Z,22.67
2018-10-16T01:00:54.129Z,20.77
2018-10-16T01:03:22.779Z,20.80
2018-10-16T01:05:51.423Z,19.87
2018-10-16T01:08:20.074Z,25.37
2018-10-16T01:10:48.725Z,25.53
2018-10-16T01:13:17.364Z,18.83
2018-10-16T01:15:45.968Z,26.20
2018-10-16T01:18:14.625Z,19.50
2018-10-16T01:20:43.357Z,20.03
2018-10-16T01:23:12.032Z,23.53
2018-10-16T01:25:40.675Z,23.50
2018-10-16T01:28:09.316Z,26.50
2018-10-16T01:30:38.002Z,19.27
2018-10-16T01:33:06.669Z,22.90
2018-10-16T01:35:35.274Z,26.50
2018-10-16T01:38:03.931Z,22.33
2018-10-16T01:40:32.518Z,21.17
2018-10-16T01:43:01.151Z,31.33
2018-10-16T01:45:29.815Z,29.30
2018-10-16T01:47:59.055Z,21.17
2018-10-16T01:50:27.649Z,27.07
2018-10-16T01:52:56.237Z,24.60
2018-10-16T01:55:24.849Z,20.63
2018-10-16T01:57:53.448Z,26.60
2018-10-16T02:00:22.089Z,23.03
2018-10-16T02:02:51.918Z,26.00
2018-10-16T02:05:20.518Z,23.73
2018-10-16T02:07:49.138Z,21.97
2018-10-16T02:10:17.818Z,19.87
2018-10-16T02:12:46.473Z,23.37
2018-10-16T02:15:15.214Z,25.20
2018-10-16T02:17:43.838Z,26.27
2018-10-16T02:20:12.488Z,24.97
2018-10-16T02:22:41.117Z,32.03
2018-10-16T02:25:10.798Z,27.03
2018-10-16T02:27:39.810Z,25.83
2018-10-16T02:30:08.615Z,25.60
2018-10-16T02:32:37.234Z,26.50
2018-10-16T02:35:07.019Z,26.37
2018-10-16T02:37:35.661Z,23.10
2018-10-16T02:40:04.466Z,23.63
2018-10-16T02:42:33.068Z,21.47
2018-10-16T02:45:01.743Z,23.93
2018-10-16T02:47:30.401Z,23.00
2018-10-16T02:49:59.025Z,21.80
2018-10-16T02:52:27.646Z,20.60
2018-10-16T02:54:56.228Z,26.83
2018-10-16T02:57:24.846Z,25.73
2018-10-16T02:59:53.457Z,24.43
2018-10-16T03:02:22.117Z,24.10
2018-10-16T03:04:50.686Z,25.27
2018-10-16T03:07:19.289Z,21.83
2018-10-16T03:09:47.912Z,30.83
2018-10-16T03:12:16.525Z,22.40
2018-10-16T03:14:45.162Z,31.43
2018-10-16T03:17:13.820Z,26.00
2018-10-16T03:19:42.426Z,22.70
2018-10-16T03:22:11.039Z,24.90
2018-10-16T03:24:39.810Z,22.90
2018-10-16T03:27:08.552Z,28.70
2018-10-16T03:29:37.274Z,24.60
2018-10-16T03:32:05.887Z,27.23
2018-10-16T03:34:34.513Z,23.20
2018-10-16T03:37:03.111Z,23.10
2018-10-16T03:39:31.743Z,30.77
2018-10-16T03:42:00.329Z,24.60
2018-10-16T03:44:29.025Z,21.53
2018-10-16T03:46:57.784Z,24.13
2018-10-16T03:49:26.591Z,25.50
2018-10-16T03:51:55.246Z,27.60
2018-10-16T03:54:24.000Z,28.80
2018-10-16T03:56:52.585Z,32.23
2018-10-16T03:59:21.486Z,28.40
2018-10-16T04:01:50.310Z,23.50
2018-10-16T04:04:19.057Z,22.17
2018-10-16T04:06:47.887Z,30.57
2018-10-16T04:09:16.459Z,32.30
2018-10-16T04:11:45.207Z,24.90
2018-10-16T04:14:13.911Z,25.20
2018-10-16T04:16:42.538Z,27.70
2018-10-16T04:19:11.120Z,26.33
2018-10-16T04:21:43.060Z,24.80
2018-10-16T04:24:11.741Z,28.07
2018-10-16T04:26:40.431Z,28.00
2018-10-16T04:29:09.822Z,34.07
2018-10-16T04:31:38.374Z,31.33
2018-10-16T04:34:07.822Z,28.40
2018-10-16T04:36:36.434Z,32.17
2018-10-16T04:39:07.922Z,29.63
2018-10-16T04:41:36.525Z,35.20
2018-10-16T04:44:05.192Z,26.13
2018-10-16T04:46:33.787Z,29.73
2018-10-16T04:49:02.442Z,24.27
2018-10-16T04:51:31.087Z,29.70
2018-10-16T04:53:59.754Z,29.83
2018-10-16T04:56:28.541Z,28.10
2018-10-16T04:58:57.163Z,26.97
2018-10-16T05:01:25.815Z,25.43
2018-10-16T05:03:54.527Z,30.53
2018-10-16T05:06:23.168Z,28.20
2018-10-16T05:08:51.914Z,26.50
2018-10-16T05:11:20.739Z,28.87
2018-10-16T05:13:49.373Z,30.10
2018-10-16T05:16:18.107Z,35.83
2018-10-16T05:18:46.726Z,37.27
2018-10-16T05:21:15.322Z,25.27
2018-10-16T05:23:43.986Z,26.83
2018-10-16T05:26:13.102Z,35.90
2018-10-16T05:28:41.796Z,28.67
2018-10-16T05:31:11.393Z,34.40
2018-10-16T05:36:13.742Z,38.23
2018-10-16T05:38:42.415Z,37.63
2018-10-16T05:41:11.055Z,34.63
2018-10-16T05:43:39.724Z,32.07
2018-10-16T05:46:08.388Z,35.07
2018-10-16T05:48:37.191Z,27.70
2018-10-16T05:51:05.845Z,34.30
2018-10-16T05:53:34.671Z,35.97
2018-10-16T05:56:05.378Z,37.50
2018-10-16T05:58:34.503Z,32.20
2018-10-16T06:01:03.141Z,32.98
2018-10-16T06:03:32.076Z,31.23
2018-10-16T06:06:00.831Z,36.20
2018-10-16T06:08:29.470Z,33.73
2018-10-16T06:10:58.208Z,30.07
2018-10-16T06:13:26.812Z,29.70
2018-10-16T06:15:56.083Z,34.80
2018-10-16T06:18:26.248Z,31.63
2018-10-16T06:20:57.953Z,34.70
2018-10-16T06:23:29.325Z,28.63
2018-10-16T06:25:59.379Z,41.63
2018-10-16T06:28:29.084Z,32.80
2018-10-16T06:30:58.007Z,31.17
2018-10-16T06:33:28.994Z,40.80
2018-10-16T06:35:58.042Z,33.80
2018-10-16T06:38:33.529Z,34.60
2018-10-16T06:41:02.998Z,33.00
2018-10-16T06:43:32.277Z,29.13
2018-10-16T06:46:00.996Z,34.37
2018-10-16T06:48:36.213Z,34.50
2018-10-16T06:51:04.994Z,37.73
2018-10-16T06:53:33.661Z,45.60
2018-10-16T06:56:02.373Z,35.83
2018-10-16T06:58:31.067Z,37.50
2018-10-16T07:00:59.745Z,37.50
2018-10-16T07:03:28.398Z,32.17
2018-10-16T07:05:57.125Z,38.60
2018-10-16T07:08:25.727Z,33.10
2018-10-16T07:10:54.360Z,37.70
2018-10-16T07:13:23.036Z,33.13
2018-10-16T07:15:51.701Z,36.67
2018-10-16T07:18:23.317Z,35.23
2018-10-16T07:34:02.531Z,29.33
2018-10-16T07:36:31.764Z,33.90
2018-10-16T07:39:01.116Z,34.47
2018-10-16T07:41:29.896Z,44.80
2018-10-16T07:43:58.514Z,34.80
2018-10-16T07:46:27.131Z,36.57
2018-10-16T07:48:56.478Z,34.50
2018-10-16T07:51:25.102Z,44.77
2018-10-16T07:53:53.740Z,32.90
2018-10-16T07:56:22.377Z,36.43
2018-10-16T07:58:51.018Z,35.77
2018-10-16T08:01:19.694Z,36.90
2018-10-16T08:03:48.339Z,37.93
2018-10-16T08:06:17.069Z,44.30
2018-10-16T08:08:45.759Z,30.27
2018-10-16T08:11:14.424Z,32.20
2018-10-16T08:13:43.359Z,42.20
2018-10-16T08:16:12.048Z,43.20
2018-10-16T08:18:40.944Z,32.80
2018-10-16T08:21:09.648Z,43.33
2018-10-16T08:23:38.551Z,31.90
2018-10-16T08:26:08.373Z,44.60
2018-10-16T08:28:37.206Z,41.30
2018-10-16T08:31:05.874Z,34.60
2018-10-16T08:33:35.553Z,43.23
2018-10-16T08:36:04.761Z,37.47
2018-10-16T08:38:44.370Z,34.33
2018-10-16T08:41:16.534Z,39.80
2018-10-16T08:43:56.918Z,39.20
2018-10-16T08:49:27.957Z,33.57
2018-10-16T08:51:57.791Z,35.83
2018-10-16T08:54:26.460Z,37.57
2018-10-16T08:56:55.143Z,32.23
2018-10-16T08:59:24.301Z,35.10
2018-10-16T09:01:53.114Z,31.07
2018-10-16T09:04:23.559Z,29.37
2018-10-16T09:06:52.203Z,34.93
2018-10-16T09:09:21.001Z,27.43
2018-10-16T09:11:54.028Z,31.53
2018-10-16T09:14:23.024Z,30.10
2018-10-16T09:16:51.631Z,36.47
2018-10-16T09:19:20.252Z,28.60
2018-10-16T09:21:49.162Z,32.47
2018-10-16T09:24:19.095Z,28.87
2018-10-16T09:26:47.855Z,34.67
2018-10-16T09:29:16.479Z,32.60
2018-10-16T09:31:45.173Z,26.53
2018-10-16T09:34:13.913Z,31.70
2018-10-16T09:36:42.595Z,37.77
2018-10-16T09:39:11.701Z,28.73
2018-10-16T09:41:41.032Z,27.00
2018-10-16T09:44:09.866Z,33.73
2018-10-16T09:46:39.905Z,34.80
2018-10-16T09:49:09.511Z,32.80
2018-10-16T09:51:38.301Z,33.37
2018-10-16T09:54:07.012Z,28.33
2018-10-16T09:56:35.825Z,35.33
2018-10-16T09:59:04.760Z,29.67
2018-10-16T10:01:38.701Z,46.27
2018-10-16T10:04:07.564Z,40.77
2018-10-16T10:06:36.580Z,40.23
2018-10-16T10:09:08.983Z,25.80
2018-10-16T10:11:37.637Z,26.67
2018-10-16T10:14:06.635Z,28.20
2018-10-16T10:16:35.403Z,38.27
2018-10-16T10:19:04.418Z,30.73
2018-10-16T10:21:33.113Z,32.63
2018-10-16T10:24:01.894Z,28.17
2018-10-16T10:26:30.766Z,29.00
2018-10-16T10:28:59.470Z,33.47
2018-10-16T10:31:28.716Z,39.67
2018-10-16T10:33:57.863Z,33.63
2018-10-16T10:36:26.681Z,32.97
2018-10-16T10:38:57.821Z,37.50
2018-10-16T10:41:26.665Z,31.40
2018-10-16T10:43:56.756Z,27.93
2018-10-16T10:46:25.527Z,32.23
2018-10-16T10:48:55.005Z,30.17
2018-10-16T10:51:24.666Z,29.27
2018-10-16T10:53:58.614Z,35.03
2018-10-16T10:56:27.799Z,37.00
2018-10-16T10:58:56.862Z,28.20
2018-10-16T11:01:25.639Z,50.63
2018-10-16T11:03:54.349Z,27.67
2018-10-16T11:06:23.312Z,32.33
2018-10-16T11:08:52.477Z,34.60
2018-10-16T11:11:21.371Z,29.43
2018-10-16T11:13:50.160Z,38.77
2018-10-16T11:16:18.840Z,37.13
2018-10-16T11:18:47.556Z,24.27
2018-10-16T11:21:17.077Z,27.83
2018-10-16T11:23:45.811Z,32.97
2018-10-16T11:26:14.537Z,25.87
2018-10-16T11:28:43.239Z,25.00
2018-10-16T11:31:12.440Z,26.80
2018-10-16T11:33:41.132Z,36.97
2018-10-16T11:36:10.051Z,26.53
2018-10-16T11:38:39.546Z,26.97
2018-10-16T11:41:08.292Z,30.20
2018-10-16T11:43:38.226Z,35.03
2018-10-16T11:46:06.958Z,25.27
2018-10-16T11:48:36.472Z,24.70
2018-10-16T11:51:05.990Z,25.27
2018-10-16T11:53:35.466Z,28.13
2018-10-16T11:56:04.136Z,37.33
2018-10-16T11:58:32.897Z,31.93
2018-10-16T12:01:01.788Z,32.00
2018-10-16T12:03:30.524Z,31.93
2018-10-16T12:05:59.456Z,31.00
2018-10-16T12:08:28.181Z,23.87
2018-10-16T12:11:00.875Z,23.43
2018-10-16T12:13:30.919Z,32.27
2018-10-16T12:16:04.505Z,21.30
2018-10-16T12:18:49.553Z,31.30
2018-10-16T12:21:22.675Z,32.73
2018-10-16T12:23:58.243Z,34.33
2018-10-16T12:26:26.894Z,27.07
2018-10-16T12:28:55.656Z,28.80
2018-10-16T12:31:24.409Z,36.43
2018-10-16T12:33:53.131Z,27.73
2018-10-16T12:36:22.718Z,27.40
2018-10-16T12:38:51.554Z,26.40
2018-10-16T12:41:20.237Z,24.50
2018-10-16T12:43:48.958Z,28.33
2018-10-16T12:46:17.644Z,31.10
2018-10-16T12:48:46.303Z,21.23
2018-10-16T12:51:15.093Z,38.60
2018-10-16T12:53:44.189Z,25.57
2018-10-16T12:56:13.970Z,22.03
2018-10-16T12:58:42.530Z,24.93
2018-10-16T13:01:11.312Z,26.23
2018-10-16T13:03:40.144Z,23.73
2018-10-16T13:06:08.771Z,24.70
2018-10-16T13:08:37.380Z,25.13
2018-10-16T13:11:06.376Z,19.63
2018-10-16T13:13:35.209Z,21.20
2018-10-16T13:16:04.091Z,25.30
2018-10-16T13:18:32.785Z,19.57
2018-10-16T13:21:01.484Z,27.37
2018-10-16T13:23:30.194Z,28.33
2018-10-16T13:25:59.276Z,24.00
2018-10-16T13:28:27.954Z,24.90
2018-10-16T13:30:56.658Z,20.43
2018-10-16T13:33:25.887Z,22.33
2018-10-16T13:35:54.857Z,24.43
2018-10-16T13:38:23.697Z,22.80
2018-10-16T13:40:52.409Z,27.83
2018-10-16T13:43:21.137Z,41.60
2018-10-16T13:45:49.878Z,21.60
2018-10-16T13:48:18.589Z,37.57
2018-10-16T13:50:47.287Z,33.27
2018-10-16T13:53:16.008Z,24.90
2018-10-16T13:55:44.773Z,23.83
2018-10-16T13:58:16.317Z,18.33
2018-10-16T14:00:45.364Z,23.80
2018-10-16T14:03:14.020Z,34.03
2018-10-16T14:05:42.718Z,19.90
2018-10-16T14:08:11.487Z,19.10
2018-10-16T14:10:40.077Z,24.33
2018-10-16T14:13:12.505Z,24.17
2018-10-16T14:15:41.285Z,20.70
2018-10-16T14:18:11.372Z,16.23
2018-10-16T14:20:40.030Z,26.00
2018-10-16T14:23:08.787Z,22.53
2018-10-16T14:25:37.582Z,24.03
2018-10-16T14:28:06.886Z,21.07
2018-10-16T14:30:35.507Z,20.67
2018-10-16T14:33:04.229Z,24.30
2018-10-16T14:35:34.981Z,19.57
2018-10-16T14:38:03.729Z,27.93
2018-10-16T14:40:32.477Z,23.37
2018-10-16T14:43:01.136Z,24.30
2018-10-16T14:45:29.946Z,35.67
2018-10-16T14:47:58.682Z,29.53
2018-10-16T14:50:27.341Z,20.33
2018-10-16T14:52:56.030Z,21.10
2018-10-16T14:55:24.687Z,19.17
2018-10-16T14:57:53.324Z,19.23
2018-10-16T15:00:22.044Z,22.67
2018-10-16T15:02:50.852Z,18.87
2018-10-16T15:05:20.683Z,22.43
2018-10-16T15:07:49.330Z,19.37
2018-10-16T15:10:18.100Z,28.10
2018-10-16T15:12:46.905Z,18.10
2018-10-16T15:15:15.608Z,18.20
2018-10-16T15:17:44.327Z,21.23
2018-10-16T15:20:13.137Z,17.83
2018-10-16T15:22:41.835Z,27.67
2018-10-16T15:25:11.040Z,31.33
2018-10-16T15:27:39.773Z,21.33
2018-10-16T15:30:09.612Z,28.37
2018-10-16T15:32:38.390Z,24.50
2018-10-16T15:35:08.526Z,24.23
2018-10-16T15:37:37.533Z,24.43
2018-10-16T15:40:07.424Z,20.97
2018-10-16T15:42:36.515Z,28.23
2018-10-16T15:45:06.549Z,22.73
2018-10-16T15:47:35.377Z,28.07
2018-10-16T15:50:04.814Z,20.53
2018-10-16T15:52:33.623Z,24.23
2018-10-16T15:55:02.443Z,23.33
2018-10-16T15:57:31.200Z,26.00
2018-10-16T15:59:59.963Z,20.97
2018-10-16T16:02:28.857Z,26.57
2018-10-16T16:04:57.535Z,28.03
2018-10-16T16:07:26.307Z,20.60
2018-10-16T16:09:55.201Z,29.47
2018-10-16T16:12:24.049Z,21.57
2018-10-16T16:14:52.941Z,26.73
2018-10-16T16:17:21.914Z,22.30
2018-10-16T16:19:50.761Z,27.83
2018-10-16T16:22:19.587Z,22.17
2018-10-16T16:24:48.359Z,19.67
2018-10-16T16:27:17.261Z,23.90
2018-10-16T16:29:46.138Z,28.73
2018-10-16T16:32:15.099Z,27.90
2018-10-16T16:34:43.948Z,29.27
2018-10-16T16:37:12.653Z,24.90
2018-10-16T16:39:41.566Z,21.37
2018-10-16T16:42:10.513Z,23.10
2018-10-16T16:44:39.437Z,29.67
2018-10-16T16:47:08.245Z,37.00
2018-10-16T16:49:36.962Z,25.30
2018-10-16T16:52:06.319Z,23.00
2018-10-16T16:54:35.006Z,40.03
2018-10-16T16:57:04.174Z,24.40
2018-10-16T16:59:33.035Z,27.07
2018-10-16T17:02:02.340Z,26.90
2018-10-16T17:04:31.566Z,22.87
2018-10-16T17:07:00.256Z,28.13
2018-10-16T17:09:28.968Z,34.20
2018-10-16T17:11:57.726Z,44.40
2018-10-16T17:14:26.948Z,28.70
2018-10-16T17:16:57.500Z,35.57
2018-10-16T17:19:27.287Z,33.10
2018-10-16T17:21:56.283Z,31.93
2018-10-16T17:24:24.986Z,30.47
2018-10-16T17:26:53.786Z,33.40
2018-10-16T17:29:22.825Z,34.10
2018-10-16T17:31:57.061Z,28.10
2018-10-16T17:34:25.980Z,31.47
2018-10-16T17:36:54.836Z,28.60
2018-10-16T17:39:23.741Z,29.13
2018-10-16T17:41:52.650Z,29.27
2018-10-16T17:44:21.671Z,33.23
2018-10-16T17:46:50.603Z,23.40
2018-10-16T17:49:19.621Z,33.40
2018-10-16T17:51:48.466Z,33.33
2018-10-16T17:54:17.288Z,32.40
2018-10-16T17:56:50.840Z,29.80
2018-10-16T17:59:20.382Z,30.33
2018-10-16T18:01:49.918Z,30.10
2018-10-16T18:04:19.314Z,26.10
2018-10-16T18:06:48.505Z,30.03
2018-10-16T18:09:17.380Z,33.67
2018-10-16T18:11:46.276Z,35.20
2018-10-16T18:14:15.042Z,32.20
2018-10-16T18:16:43.802Z,32.40
2018-10-16T18:19:12.489Z,26.73
2018-10-16T18:21:41.343Z,34.40
2018-10-16T18:24:10.409Z,29.40
2018-10-16T18:26:39.397Z,28.20
2018-10-16T18:29:08.298Z,26.43
2018-10-16T18:31:37.893Z,35.70
2018-10-16T18:34:06.888Z,26.03
2018-10-16T18:36:35.543Z,31.67
2018-10-16T18:39:06.599Z,38.10
2018-10-16T18:41:36.025Z,32.13
2018-10-16T18:44:04.911Z,33.70
2018-10-16T18:46:33.671Z,33.17
2018-10-16T18:49:02.559Z,29.43
2018-10-16T18:51:32.309Z,32.30
2018-10-16T18:54:02.424Z,34.77
2018-10-16T18:56:31.219Z,33.50
2018-10-16T18:59:00.056Z,27.80
2018-10-16T19:01:28.814Z,36.00
2018-10-16T19:03:58.626Z,37.60
2018-10-16T19:06:28.923Z,30.90
2018-10-16T19:08:57.606Z,34.63
2018-10-16T19:11:27.627Z,37.97
2018-10-16T19:13:56.363Z,35.50
2018-10-16T19:16:24.966Z,41.10
2018-10-16T19:18:53.670Z,39.17
2018-10-16T19:21:22.394Z,32.67
2018-10-16T19:23:51.091Z,34.90
2018-10-16T19:26:20.867Z,27.70
2018-10-16T19:28:53.522Z,42.10
2018-10-16T19:31:22.420Z,40.13
2018-10-16T19:33:54.058Z,41.17
2018-10-16T19:36:25.467Z,36.30
2018-10-16T19:38:54.535Z,34.50
2018-10-16T19:41:23.301Z,36.03
2018-10-16T19:43:52.341Z,38.20
2018-10-16T19:46:21.945Z,38.03
2018-10-16T19:48:50.677Z,38.70
2018-10-16T19:51:20.443Z,36.50
2018-10-16T19:53:50.172Z,40.63
2018-10-16T19:56:24.294Z,36.30
2018-10-16T19:58:53.886Z,42.07
2018-10-16T20:01:22.934Z,36.57
2018-10-16T20:06:47.969Z,36.00
2018-10-16T20:09:17.604Z,37.20
2018-10-16T20:11:46.868Z,37.67
2018-10-16T20:14:15.892Z,37.37
2018-10-16T20:16:44.514Z,37.70
2018-10-16T20:19:13.402Z,37.77
2018-10-16T20:21:42.186Z,37.30
2018-10-16T20:24:10.926Z,40.40
2018-10-16T20:26:39.705Z,46.00
2018-10-16T20:29:08.514Z,35.50
2018-10-16T20:31:37.525Z,38.57
2018-10-16T20:34:06.760Z,36.23
2018-10-16T20:36:35.614Z,39.23
2018-10-16T20:39:06.402Z,39.70
2018-10-16T20:41:35.477Z,36.63
2018-10-16T20:44:04.487Z,43.37
2018-10-16T20:46:35.304Z,42.70
2018-10-16T20:49:04.991Z,37.53
2018-10-16T20:51:33.965Z,38.70
2018-10-16T20:54:03.254Z,42.13
2018-10-16T20:56:33.748Z,49.80
2018-10-16T20:59:08.879Z,44.07
2018-10-16T21:01:39.179Z,39.10
2018-10-16T21:04:10.582Z,40.83
2018-10-16T21:06:40.533Z,45.80
2018-10-16T21:09:14.408Z,38.27
2018-10-16T21:11:43.404Z,52.07
2018-10-16T21:14:12.605Z,49.57
2018-10-16T21:16:42.737Z,50.10
2018-10-16T21:19:12.399Z,39.77
2018-10-16T21:21:44.909Z,40.60
2018-10-16T21:24:14.766Z,41.30
2018-10-16T21:26:44.231Z,42.23
2018-10-16T21:29:13.729Z,41.33
2018-10-16T21:31:42.948Z,39.37
2018-10-16T21:34:11.910Z,46.43
2018-10-16T21:36:40.918Z,44.57
2018-10-16T21:39:10.281Z,42.40
2018-10-16T21:41:39.071Z,47.07
2018-10-16T21:44:08.114Z,46.30
2018-10-16T21:46:37.623Z,43.63
2018-10-16T21:49:06.546Z,43.23
2018-10-16T21:51:35.314Z,45.33
2018-10-16T21:54:04.016Z,39.47
2018-10-16T21:56:32.999Z,45.93
2018-10-16T21:59:09.236Z,40.93
2018-10-16T22:01:43.685Z,47.53
2018-10-16T22:04:13.743Z,39.33
2018-10-16T22:09:19.707Z,50.57
2018-10-16T22:11:49.972Z,45.90
2018-10-16T22:14:19.815Z,47.63
2018-10-16T22:16:49.096Z,50.20
2018-10-16T22:19:21.449Z,43.60
2018-10-16T22:21:52.163Z,42.67
2018-10-16T22:24:22.696Z,50.90
2018-10-16T22:26:53.479Z,45.33
2018-10-16T22:29:24.072Z,46.47
2018-10-16T22:31:52.773Z,40.37
2018-10-16T22:34:22.452Z,48.60
2018-10-16T22:36:52.851Z,49.03
2018-10-16T22:39:22.091Z,45.30
2018-10-16T22:41:50.871Z,62.03
2018-10-16T22:44:21.720Z,43.83
2018-10-16T22:46:52.924Z,49.90
2018-10-16T22:49:22.715Z,43.50
2018-10-16T22:51:53.034Z,47.40
2018-10-16T22:54:23.407Z,50.83
2018-10-16T22:56:56.961Z,45.00
2018-10-16T22:59:26.746Z,48.63
2018-10-16T23:01:56.943Z,50.47
2018-10-16T23:04:28.077Z,59.30
2018-10-16T23:07:00.592Z,55.40
2018-10-16T23:09:33.074Z,47.63
2018-10-16T23:12:05.011Z,55.27
2018-10-16T23:14:35.908Z,54.20
2018-10-16T23:17:06.970Z,48.67
2018-10-16T23:19:38.256Z,59.37
2018-10-16T23:22:10.231Z,56.20
2018-10-16T23:24:40.378Z,56.73
2018-10-16T23:27:13.427Z,54.80
2018-10-16T23:29:47.633Z,56.00
2018-10-16T23:32:17.906Z,51.13
2018-10-16T23:34:46.696Z,56.63
2018-10-16T23:37:15.751Z,52.73
2018-10-16T23:39:44.278Z,54.83
2018-10-16T23:42:12.987Z,52.00
2018-10-16T23:44:41.661Z,50.93
2018-10-16T23:47:10.321Z,51.50
2018-10-16T23:49:38.990Z,46.10
2018-10-16T23:52:07.718Z,52.27
2018-10-16T23:54:36.354Z,52.03
2018-10-16T23:57:05.127Z,57.07
2018-10-16T23:59:33.830Z,54.03
